sensor_id;sensor_type;location;lat;lon;timestamp;P1;durP1;ratioP1;P2;durP2;ratioP2
15488;SDS011;7846;48.830;9.116;2022-07-15T00:00:48;5.60;;;2.83;;
15488;SDS011;7846;48.830;9.116;2022-07-15T00:03:33;3.90;;;2.20;;
15488;SDS011;7846;48.830;9.116;2022-07-15T00:06:16;3.17;;;2.60;;
15488;SDS011;7846;48.830;9.116;2022-07-15T00:09:01;2.97;;;2.57;;
15488;SDS011;7846;48.830;9.116;2022-07-15T00:11:44;5.60;;;2.70;;
15488;SDS011;7846;48.830;9.116;2022-07-15T00:14:28;3.93;;;2.40;;
15488;SDS011;7846;48.830;9.116;2022-07-15T00:17:12;3.70;;;2.53;;
15488;SDS011;7846;48.830;9.116;2022-07-15T00:19:56;4.03;;;2.43;;
15488;SDS011;7846;48.830;9.116;2022-07-15T00:22:42;3.63;;;2.30;;
15488;SDS011;7846;48.830;9.116;2022-07-15T00:25:27;3.00;;;2.23;;
15488;SDS011;7846;48.830;9.116;2022-07-15T00:28:11;3.10;;;2.27;;
15488;SDS011;7846;48.830;9.116;2022-07-15T00:30:55;3.20;;;2.33;;
15488;SDS011;7846;48.830;9.116;2022-07-15T00:33:39;3.50;;;2.17;;
15488;SDS011;7846;48.830;9.116;2022-07-15T00:36:23;3.10;;;2.40;;
15488;SDS011;7846;48.830;9.116;2022-07-15T00:39:07;2.50;;;2.17;;
15488;SDS011;7846;48.830;9.116;2022-07-15T00:41:51;2.73;;;2.30;;
15488;SDS011;7846;48.830;9.116;2022-07-15T00:44:35;4.20;;;2.00;;
15488;SDS011;7846;48.830;9.116;2022-07-15T00:47:19;3.63;;;2.07;;
15488;SDS011;7846;48.830;9.116;2022-07-15T00:50:03;3.80;;;2.20;;
15488;SDS011;7846;48.830;9.116;2022-07-15T00:52:55;3.00;;;1.97;;
15488;SDS011;7846;48.830;9.116;2022-07-15T00:56:01;3.57;;;2.40;;
15488;SDS011;7846;48.830;9.116;2022-07-15T00:58:45;4.23;;;2.30;;
15488;SDS011;7846;48.830;9.116;2022-07-15T01:01:31;4.07;;;2.30;;
15488;SDS011;7846;48.830;9.116;2022-07-15T01:04:17;5.60;;;2.53;;
15488;SDS011;7846;48.830;9.116;2022-07-15T01:07:04;2.57;;;2.30;;
15488;SDS011;7846;48.830;9.116;2022-07-15T01:09:48;5.20;;;2.53;;
15488;SDS011;7846;48.830;9.116;2022-07-15T01:12:33;3.63;;;2.40;;
15488;SDS011;7846;48.830;9.116;2022-07-15T01:15:20;3.33;;;2.30;;
15488;SDS011;7846;48.830;9.116;2022-07-15T01:18:04;4.00;;;2.10;;
15488;SDS011;7846;48.830;9.116;2022-07-15T01:20:48;4.27;;;2.50;;
15488;SDS011;7846;48.830;9.116;2022-07-15T01:23:32;3.27;;;2.40;;
15488;SDS011;7846;48.830;9.116;2022-07-15T01:26:16;5.37;;;2.43;;
15488;SDS011;7846;48.830;9.116;2022-07-15T01:29:00;5.03;;;2.40;;
15488;SDS011;7846;48.830;9.116;2022-07-15T01:31:44;3.93;;;2.17;;
15488;SDS011;7846;48.830;9.116;2022-07-15T01:34:29;3.90;;;2.63;;
15488;SDS011;7846;48.830;9.116;2022-07-15T01:37:14;4.13;;;2.27;;
15488;SDS011;7846;48.830;9.116;2022-07-15T01:39:59;3.93;;;2.30;;
15488;SDS011;7846;48.830;9.116;2022-07-15T01:42:43;2.70;;;2.47;;
15488;SDS011;7846;48.830;9.116;2022-07-15T01:45:27;4.40;;;2.33;;
15488;SDS011;7846;48.830;9.116;2022-07-15T01:48:12;2.80;;;2.50;;
15488;SDS011;7846;48.830;9.116;2022-07-15T01:51:16;3.63;;;2.33;;
15488;SDS011;7846;48.830;9.116;2022-07-15T01:54:00;2.90;;;2.50;;
15488;SDS011;7846;48.830;9.116;2022-07-15T01:56:44;4.37;;;2.50;;
15488;SDS011;7846;48.830;9.116;2022-07-15T01:59:28;3.17;;;2.40;;
15488;SDS011;7846;48.830;9.116;2022-07-15T02:02:12;5.10;;;2.57;;
15488;SDS011;7846;48.830;9.116;2022-07-15T02:04:56;4.17;;;2.50;;
15488;SDS011;7846;48.830;9.116;2022-07-15T02:07:40;3.80;;;2.50;;
15488;SDS011;7846;48.830;9.116;2022-07-15T02:10:24;4.20;;;2.70;;
15488;SDS011;7846;48.830;9.116;2022-07-15T02:13:10;2.60;;;2.20;;
15488;SDS011;7846;48.830;9.116;2022-07-15T02:15:55;3.83;;;2.40;;
15488;SDS011;7846;48.830;9.116;2022-07-15T02:18:39;2.80;;;2.53;;
15488;SDS011;7846;48.830;9.116;2022-07-15T02:21:23;5.53;;;2.67;;
15488;SDS011;7846;48.830;9.116;2022-07-15T02:24:09;4.60;;;2.63;;
15488;SDS011;7846;48.830;9.116;2022-07-15T02:26:53;5.37;;;2.67;;
15488;SDS011;7846;48.830;9.116;2022-07-15T02:29:37;7.37;;;2.40;;
15488;SDS011;7846;48.830;9.116;2022-07-15T02:32:22;2.77;;;2.40;;
15488;SDS011;7846;48.830;9.116;2022-07-15T02:35:07;2.50;;;2.30;;
15488;SDS011;7846;48.830;9.116;2022-07-15T02:37:52;3.23;;;2.60;;
15488;SDS011;7846;48.830;9.116;2022-07-15T02:40:37;4.17;;;2.90;;
15488;SDS011;7846;48.830;9.116;2022-07-15T02:43:22;4.13;;;2.60;;
15488;SDS011;7846;48.830;9.116;2022-07-15T02:46:05;3.43;;;2.50;;
15488;SDS011;7846;48.830;9.116;2022-07-15T02:48:50;5.40;;;2.50;;
15488;SDS011;7846;48.830;9.116;2022-07-15T02:51:34;6.63;;;2.60;;
15488;SDS011;7846;48.830;9.116;2022-07-15T02:54:18;5.97;;;2.70;;
15488;SDS011;7846;48.830;9.116;2022-07-15T02:57:02;5.03;;;2.57;;
15488;SDS011;7846;48.830;9.116;2022-07-15T02:59:48;5.83;;;2.43;;
15488;SDS011;7846;48.830;9.116;2022-07-15T03:02:32;3.83;;;2.43;;
15488;SDS011;7846;48.830;9.116;2022-07-15T03:05:17;4.97;;;2.27;;
15488;SDS011;7846;48.830;9.116;2022-07-15T03:08:01;3.87;;;2.30;;
15488;SDS011;7846;48.830;9.116;2022-07-15T03:10:45;4.07;;;2.67;;
15488;SDS011;7846;48.830;9.116;2022-07-15T03:13:29;3.77;;;2.60;;
15488;SDS011;7846;48.830;9.116;2022-07-15T03:16:13;5.00;;;2.53;;
15488;SDS011;7846;48.830;9.116;2022-07-15T03:18:57;2.93;;;2.50;;
15488;SDS011;7846;48.830;9.116;2022-07-15T03:21:41;3.03;;;2.50;;
15488;SDS011;7846;48.830;9.116;2022-07-15T03:24:25;3.63;;;2.50;;
15488;SDS011;7846;48.830;9.116;2022-07-15T03:27:09;7.57;;;2.97;;
15488;SDS011;7846;48.830;9.116;2022-07-15T03:29:53;2.83;;;2.50;;
15488;SDS011;7846;48.830;9.116;2022-07-15T03:32:38;3.63;;;2.67;;
15488;SDS011;7846;48.830;9.116;2022-07-15T03:35:22;4.60;;;2.53;;
15488;SDS011;7846;48.830;9.116;2022-07-15T03:38:06;3.87;;;2.93;;
15488;SDS011;7846;48.830;9.116;2022-07-15T03:40:51;5.57;;;3.40;;
15488;SDS011;7846;48.830;9.116;2022-07-15T03:43:35;4.63;;;2.77;;
15488;SDS011;7846;48.830;9.116;2022-07-15T03:46:19;5.23;;;2.90;;
15488;SDS011;7846;48.830;9.116;2022-07-15T03:49:03;5.87;;;3.30;;
15488;SDS011;7846;48.830;9.116;2022-07-15T03:51:47;3.00;;;2.70;;
15488;SDS011;7846;48.830;9.116;2022-07-15T03:54:31;3.83;;;2.90;;
15488;SDS011;7846;48.830;9.116;2022-07-15T03:57:15;3.47;;;2.90;;
15488;SDS011;7846;48.830;9.116;2022-07-15T03:59:59;4.33;;;2.73;;
15488;SDS011;7846;48.830;9.116;2022-07-15T04:02:43;4.90;;;2.53;;
15488;SDS011;7846;48.830;9.116;2022-07-15T04:05:27;6.80;;;3.00;;
15488;SDS011;7846;48.830;9.116;2022-07-15T04:08:11;4.93;;;2.90;;
15488;SDS011;7846;48.830;9.116;2022-07-15T04:10:58;5.73;;;2.93;;
15488;SDS011;7846;48.830;9.116;2022-07-15T04:13:42;4.20;;;2.80;;
15488;SDS011;7846;48.830;9.116;2022-07-15T04:16:26;3.50;;;2.60;;
15488;SDS011;7846;48.830;9.116;2022-07-15T04:19:12;3.33;;;3.00;;
15488;SDS011;7846;48.830;9.116;2022-07-15T04:21:56;4.37;;;2.67;;
15488;SDS011;7846;48.830;9.116;2022-07-15T04:24:40;3.77;;;2.93;;
15488;SDS011;7846;48.830;9.116;2022-07-15T04:27:24;4.57;;;3.00;;
15488;SDS011;7846;48.830;9.116;2022-07-15T04:30:08;5.03;;;3.43;;
15488;SDS011;7846;48.830;9.116;2022-07-15T04:32:53;7.10;;;3.13;;
15488;SDS011;7846;48.830;9.116;2022-07-15T04:35:37;4.83;;;3.70;;
15488;SDS011;7846;48.830;9.116;2022-07-15T04:38:22;3.87;;;3.27;;
15488;SDS011;7846;48.830;9.116;2022-07-15T04:41:07;3.50;;;3.20;;
15488;SDS011;7846;48.830;9.116;2022-07-15T04:43:51;3.40;;;2.80;;
15488;SDS011;7846;48.830;9.116;2022-07-15T04:46:37;5.33;;;3.33;;
15488;SDS011;7846;48.830;9.116;2022-07-15T04:49:21;4.73;;;3.40;;
15488;SDS011;7846;48.830;9.116;2022-07-15T04:52:25;4.63;;;3.23;;
15488;SDS011;7846;48.830;9.116;2022-07-15T04:55:10;6.47;;;2.97;;
15488;SDS011;7846;48.830;9.116;2022-07-15T04:57:54;7.13;;;2.97;;
15488;SDS011;7846;48.830;9.116;2022-07-15T05:00:40;6.50;;;3.57;;
15488;SDS011;7846;48.830;9.116;2022-07-15T05:03:27;4.97;;;3.27;;
15488;SDS011;7846;48.830;9.116;2022-07-15T05:06:12;6.83;;;3.73;;
15488;SDS011;7846;48.830;9.116;2022-07-15T05:08:56;6.50;;;3.40;;
15488;SDS011;7846;48.830;9.116;2022-07-15T05:11:41;6.80;;;3.37;;
15488;SDS011;7846;48.830;9.116;2022-07-15T05:14:26;6.70;;;3.53;;
15488;SDS011;7846;48.830;9.116;2022-07-15T05:17:10;5.70;;;3.30;;
15488;SDS011;7846;48.830;9.116;2022-07-15T05:19:54;10.37;;;3.50;;
15488;SDS011;7846;48.830;9.116;2022-07-15T05:22:38;8.73;;;3.30;;
15488;SDS011;7846;48.830;9.116;2022-07-15T05:25:23;8.47;;;3.53;;
15488;SDS011;7846;48.830;9.116;2022-07-15T05:28:06;5.33;;;3.63;;
15488;SDS011;7846;48.830;9.116;2022-07-15T05:30:51;9.03;;;3.40;;
15488;SDS011;7846;48.830;9.116;2022-07-15T05:33:35;5.27;;;3.13;;
15488;SDS011;7846;48.830;9.116;2022-07-15T05:36:20;4.37;;;3.53;;
15488;SDS011;7846;48.830;9.116;2022-07-15T05:39:04;7.90;;;3.07;;
15488;SDS011;7846;48.830;9.116;2022-07-15T05:41:52;5.97;;;3.10;;
15488;SDS011;7846;48.830;9.116;2022-07-15T05:44:33;4.70;;;2.90;;
15488;SDS011;7846;48.830;9.116;2022-07-15T05:47:17;7.70;;;3.20;;
15488;SDS011;7846;48.830;9.116;2022-07-15T05:50:02;6.97;;;3.20;;
15488;SDS011;7846;48.830;9.116;2022-07-15T05:52:47;6.10;;;3.00;;
15488;SDS011;7846;48.830;9.116;2022-07-15T05:55:31;5.57;;;2.90;;
15488;SDS011;7846;48.830;9.116;2022-07-15T05:58:15;6.00;;;3.47;;
15488;SDS011;7846;48.830;9.116;2022-07-15T06:00:59;6.53;;;2.90;;
15488;SDS011;7846;48.830;9.116;2022-07-15T06:03:43;7.50;;;2.87;;
15488;SDS011;7846;48.830;9.116;2022-07-15T06:06:27;6.60;;;2.80;;
15488;SDS011;7846;48.830;9.116;2022-07-15T06:09:11;5.57;;;2.70;;
15488;SDS011;7846;48.830;9.116;2022-07-15T06:11:55;4.63;;;2.40;;
15488;SDS011;7846;48.830;9.116;2022-07-15T06:14:39;3.33;;;2.70;;
15488;SDS011;7846;48.830;9.116;2022-07-15T06:17:24;4.63;;;2.60;;
15488;SDS011;7846;48.830;9.116;2022-07-15T06:20:09;4.93;;;2.70;;
15488;SDS011;7846;48.830;9.116;2022-07-15T06:22:54;5.80;;;2.63;;
15488;SDS011;7846;48.830;9.116;2022-07-15T06:25:38;5.80;;;2.60;;
15488;SDS011;7846;48.830;9.116;2022-07-15T06:28:22;5.83;;;2.60;;
15488;SDS011;7846;48.830;9.116;2022-07-15T06:31:06;7.43;;;2.50;;
15488;SDS011;7846;48.830;9.116;2022-07-15T06:33:50;5.00;;;2.50;;
15488;SDS011;7846;48.830;9.116;2022-07-15T06:36:34;6.17;;;2.20;;
15488;SDS011;7846;48.830;9.116;2022-07-15T06:39:18;5.07;;;2.20;;
15488;SDS011;7846;48.830;9.116;2022-07-15T06:42:03;4.30;;;2.13;;
15488;SDS011;7846;48.830;9.116;2022-07-15T06:44:47;5.33;;;2.23;;
15488;SDS011;7846;48.830;9.116;2022-07-15T06:47:33;5.83;;;2.43;;
15488;SDS011;7846;48.830;9.116;2022-07-15T06:50:17;7.20;;;2.50;;
15488;SDS011;7846;48.830;9.116;2022-07-15T06:53:03;6.60;;;2.67;;
15488;SDS011;7846;48.830;9.116;2022-07-15T06:55:47;3.93;;;2.27;;
15488;SDS011;7846;48.830;9.116;2022-07-15T06:58:31;4.13;;;2.37;;
15488;SDS011;7846;48.830;9.116;2022-07-15T07:01:15;2.07;;;1.80;;
15488;SDS011;7846;48.830;9.116;2022-07-15T07:03:59;3.00;;;2.20;;
15488;SDS011;7846;48.830;9.116;2022-07-15T07:06:44;6.50;;;2.00;;
15488;SDS011;7846;48.830;9.116;2022-07-15T07:09:29;3.67;;;1.77;;
15488;SDS011;7846;48.830;9.116;2022-07-15T07:12:13;4.27;;;1.93;;
15488;SDS011;7846;48.830;9.116;2022-07-15T07:14:57;2.47;;;1.70;;
15488;SDS011;7846;48.830;9.116;2022-07-15T07:17:41;3.10;;;1.80;;
15488;SDS011;7846;48.830;9.116;2022-07-15T07:20:25;2.80;;;1.40;;
15488;SDS011;7846;48.830;9.116;2022-07-15T07:23:09;1.70;;;1.53;;
15488;SDS011;7846;48.830;9.116;2022-07-15T07:25:54;3.37;;;1.70;;
15488;SDS011;7846;48.830;9.116;2022-07-15T07:28:38;3.10;;;1.60;;
15488;SDS011;7846;48.830;9.116;2022-07-15T07:31:23;1.93;;;1.50;;
15488;SDS011;7846;48.830;9.116;2022-07-15T07:34:10;2.63;;;1.50;;
15488;SDS011;7846;48.830;9.116;2022-07-15T07:36:55;3.30;;;1.50;;
15488;SDS011;7846;48.830;9.116;2022-07-15T07:39:39;2.53;;;1.33;;
15488;SDS011;7846;48.830;9.116;2022-07-15T07:42:24;1.53;;;1.43;;
15488;SDS011;7846;48.830;9.116;2022-07-15T07:45:08;2.43;;;1.67;;
15488;SDS011;7846;48.830;9.116;2022-07-15T07:47:52;2.40;;;1.70;;
15488;SDS011;7846;48.830;9.116;2022-07-15T07:50:39;2.60;;;1.67;;
15488;SDS011;7846;48.830;9.116;2022-07-15T07:53:24;1.87;;;1.50;;
15488;SDS011;7846;48.830;9.116;2022-07-15T07:56:08;2.90;;;1.57;;
15488;SDS011;7846;48.830;9.116;2022-07-15T07:58:52;1.93;;;1.50;;
15488;SDS011;7846;48.830;9.116;2022-07-15T08:01:36;4.70;;;1.93;;
15488;SDS011;7846;48.830;9.116;2022-07-15T08:04:21;2.93;;;1.50;;
15488;SDS011;7846;48.830;9.116;2022-07-15T08:07:07;2.23;;;1.63;;
15488;SDS011;7846;48.830;9.116;2022-07-15T08:09:51;4.83;;;1.40;;
15488;SDS011;7846;48.830;9.116;2022-07-15T08:12:35;4.43;;;1.50;;
15488;SDS011;7846;48.830;9.116;2022-07-15T08:15:21;3.00;;;1.63;;
15488;SDS011;7846;48.830;9.116;2022-07-15T08:18:05;3.17;;;1.77;;
15488;SDS011;7846;48.830;9.116;2022-07-15T08:20:49;2.50;;;1.57;;
15488;SDS011;7846;48.830;9.116;2022-07-15T08:23:33;2.50;;;1.37;;
15488;SDS011;7846;48.830;9.116;2022-07-15T08:26:17;3.10;;;1.50;;
15488;SDS011;7846;48.830;9.116;2022-07-15T08:29:08;1.60;;;1.50;;
15488;SDS011;7846;48.830;9.116;2022-07-15T08:31:52;1.70;;;1.60;;
15488;SDS011;7846;48.830;9.116;2022-07-15T08:34:36;4.50;;;2.00;;
15488;SDS011;7846;48.830;9.116;2022-07-15T08:37:20;3.77;;;1.60;;
15488;SDS011;7846;48.830;9.116;2022-07-15T08:40:05;1.60;;;1.50;;
15488;SDS011;7846;48.830;9.116;2022-07-15T08:42:51;5.10;;;1.83;;
15488;SDS011;7846;48.830;9.116;2022-07-15T08:45:36;3.77;;;1.37;;
15488;SDS011;7846;48.830;9.116;2022-07-15T08:48:26;4.03;;;1.60;;
15488;SDS011;7846;48.830;9.116;2022-07-15T08:51:14;3.20;;;1.57;;
15488;SDS011;7846;48.830;9.116;2022-07-15T08:53:59;4.20;;;1.60;;
15488;SDS011;7846;48.830;9.116;2022-07-15T08:56:44;2.43;;;1.40;;
15488;SDS011;7846;48.830;9.116;2022-07-15T08:59:29;3.30;;;1.50;;
15488;SDS011;7846;48.830;9.116;2022-07-15T09:02:14;2.87;;;1.30;;
15488;SDS011;7846;48.830;9.116;2022-07-15T09:05:18;2.57;;;1.53;;
15488;SDS011;7846;48.830;9.116;2022-07-15T09:08:08;4.63;;;1.60;;
15488;SDS011;7846;48.830;9.116;2022-07-15T09:10:55;3.13;;;1.57;;
15488;SDS011;7846;48.830;9.116;2022-07-15T09:13:41;2.60;;;1.43;;
15488;SDS011;7846;48.830;9.116;2022-07-15T09:16:26;4.47;;;1.50;;
15488;SDS011;7846;48.830;9.116;2022-07-15T09:19:10;5.83;;;1.57;;
15488;SDS011;7846;48.830;9.116;2022-07-15T09:22:01;3.33;;;1.50;;
15488;SDS011;7846;48.830;9.116;2022-07-15T09:25:00;5.47;;;1.73;;
15488;SDS011;7846;48.830;9.116;2022-07-15T09:27:52;3.50;;;1.60;;
15488;SDS011;7846;48.830;9.116;2022-07-15T09:30:40;3.60;;;1.50;;
15488;SDS011;7846;48.830;9.116;2022-07-15T09:33:45;3.10;;;1.53;;
15488;SDS011;7846;48.830;9.116;2022-07-15T09:36:30;3.67;;;1.73;;
15488;SDS011;7846;48.830;9.116;2022-07-15T09:39:15;2.87;;;1.40;;
15488;SDS011;7846;48.830;9.116;2022-07-15T09:42:04;2.20;;;1.40;;
15488;SDS011;7846;48.830;9.116;2022-07-15T09:44:50;4.10;;;1.70;;
15488;SDS011;7846;48.830;9.116;2022-07-15T09:47:37;1.93;;;1.50;;
15488;SDS011;7846;48.830;9.116;2022-07-15T09:50:32;3.30;;;1.40;;
15488;SDS011;7846;48.830;9.116;2022-07-15T09:53:20;3.10;;;1.60;;
15488;SDS011;7846;48.830;9.116;2022-07-15T09:56:05;5.53;;;1.60;;
15488;SDS011;7846;48.830;9.116;2022-07-15T09:58:51;5.00;;;1.73;;
15488;SDS011;7846;48.830;9.116;2022-07-15T10:01:36;3.47;;;1.70;;
15488;SDS011;7846;48.830;9.116;2022-07-15T10:04:22;3.17;;;1.80;;
15488;SDS011;7846;48.830;9.116;2022-07-15T10:07:07;3.83;;;1.90;;
15488;SDS011;7846;48.830;9.116;2022-07-15T10:09:54;4.13;;;1.90;;
15488;SDS011;7846;48.830;9.116;2022-07-15T10:12:46;3.20;;;1.77;;
15488;SDS011;7846;48.830;9.116;2022-07-15T10:18:48;3.10;;;1.80;;
15488;SDS011;7846;48.830;9.116;2022-07-15T10:25:16;3.20;;;1.70;;
15488;SDS011;7846;48.830;9.116;2022-07-15T10:28:13;3.40;;;1.60;;
15488;SDS011;7846;48.830;9.116;2022-07-15T10:31:18;3.00;;;1.80;;
15488;SDS011;7846;48.830;9.116;2022-07-15T10:36:58;4.30;;;2.13;;
15488;SDS011;7846;48.830;9.116;2022-07-15T10:39:58;2.63;;;1.93;;
15488;SDS011;7846;48.830;9.116;2022-07-15T10:43:01;2.13;;;1.70;;
15488;SDS011;7846;48.830;9.116;2022-07-15T10:46:03;4.70;;;2.10;;
15488;SDS011;7846;48.830;9.116;2022-07-15T10:48:52;2.83;;;2.10;;
15488;SDS011;7846;48.830;9.116;2022-07-15T10:52:04;5.33;;;2.20;;
15488;SDS011;7846;48.830;9.116;2022-07-15T11:03:20;2.80;;;1.80;;
15488;SDS011;7846;48.830;9.116;2022-07-15T11:06:04;5.60;;;1.87;;
15488;SDS011;7846;48.830;9.116;2022-07-15T11:08:49;2.13;;;1.73;;
15488;SDS011;7846;48.830;9.116;2022-07-15T11:14:47;3.87;;;1.90;;
15488;SDS011;7846;48.830;9.116;2022-07-15T11:17:43;2.50;;;1.80;;
15488;SDS011;7846;48.830;9.116;2022-07-15T11:20:34;3.80;;;1.70;;
15488;SDS011;7846;48.830;9.116;2022-07-15T11:23:19;4.27;;;2.03;;
15488;SDS011;7846;48.830;9.116;2022-07-15T11:26:04;2.60;;;1.70;;
15488;SDS011;7846;48.830;9.116;2022-07-15T11:28:55;3.33;;;1.90;;
15488;SDS011;7846;48.830;9.116;2022-07-15T11:31:39;2.27;;;1.73;;
15488;SDS011;7846;48.830;9.116;2022-07-15T11:34:35;4.93;;;1.80;;
15488;SDS011;7846;48.830;9.116;2022-07-15T11:40:12;6.47;;;1.90;;
15488;SDS011;7846;48.830;9.116;2022-07-15T11:43:18;3.20;;;2.00;;
15488;SDS011;7846;48.830;9.116;2022-07-15T11:46:22;4.93;;;2.10;;
15488;SDS011;7846;48.830;9.116;2022-07-15T11:49:07;5.90;;;1.80;;
15488;SDS011;7846;48.830;9.116;2022-07-15T11:51:52;2.97;;;1.90;;
15488;SDS011;7846;48.830;9.116;2022-07-15T11:54:38;3.80;;;2.10;;
15488;SDS011;7846;48.830;9.116;2022-07-15T11:57:24;3.03;;;1.80;;
15488;SDS011;7846;48.830;9.116;2022-07-15T12:00:08;4.33;;;1.80;;
15488;SDS011;7846;48.830;9.116;2022-07-15T12:03:04;2.33;;;1.80;;
15488;SDS011;7846;48.830;9.116;2022-07-15T12:05:59;3.10;;;1.70;;
15488;SDS011;7846;48.830;9.116;2022-07-15T12:08:48;3.10;;;1.80;;
15488;SDS011;7846;48.830;9.116;2022-07-15T12:11:37;4.50;;;1.70;;
15488;SDS011;7846;48.830;9.116;2022-07-15T12:14:22;2.87;;;1.60;;
15488;SDS011;7846;48.830;9.116;2022-07-15T12:17:07;4.23;;;1.90;;
15488;SDS011;7846;48.830;9.116;2022-07-15T12:19:51;6.87;;;2.00;;
15488;SDS011;7846;48.830;9.116;2022-07-15T12:22:36;4.40;;;1.80;;
15488;SDS011;7846;48.830;9.116;2022-07-15T12:25:21;4.23;;;1.90;;
15488;SDS011;7846;48.830;9.116;2022-07-15T12:28:05;3.90;;;1.70;;
15488;SDS011;7846;48.830;9.116;2022-07-15T12:30:49;4.43;;;1.90;;
15488;SDS011;7846;48.830;9.116;2022-07-15T12:33:34;3.00;;;1.63;;
15488;SDS011;7846;48.830;9.116;2022-07-15T12:36:20;5.73;;;2.00;;
15488;SDS011;7846;48.830;9.116;2022-07-15T12:39:16;3.23;;;1.80;;
15488;SDS011;7846;48.830;9.116;2022-07-15T12:42:02;4.23;;;1.73;;
15488;SDS011;7846;48.830;9.116;2022-07-15T12:47:57;4.13;;;1.60;;
15488;SDS011;7846;48.830;9.116;2022-07-15T12:53:37;4.60;;;1.60;;
15488;SDS011;7846;48.830;9.116;2022-07-15T12:56:22;3.20;;;1.50;;
15488;SDS011;7846;48.830;9.116;2022-07-15T12:59:07;5.23;;;1.80;;
15488;SDS011;7846;48.830;9.116;2022-07-15T13:02:00;2.63;;;1.50;;
15488;SDS011;7846;48.830;9.116;2022-07-15T13:04:45;3.33;;;1.57;;
15488;SDS011;7846;48.830;9.116;2022-07-15T13:07:29;3.73;;;2.00;;
15488;SDS011;7846;48.830;9.116;2022-07-15T13:10:13;2.37;;;1.43;;
15488;SDS011;7846;48.830;9.116;2022-07-15T13:12:57;4.47;;;1.70;;
15488;SDS011;7846;48.830;9.116;2022-07-15T13:15:42;4.13;;;1.80;;
15488;SDS011;7846;48.830;9.116;2022-07-15T13:18:28;5.83;;;1.70;;
15488;SDS011;7846;48.830;9.116;2022-07-15T13:21:13;3.13;;;1.60;;
15488;SDS011;7846;48.830;9.116;2022-07-15T13:23:57;1.97;;;1.70;;
15488;SDS011;7846;48.830;9.116;2022-07-15T13:26:41;4.17;;;1.90;;
15488;SDS011;7846;48.830;9.116;2022-07-15T13:29:25;1.70;;;1.60;;
15488;SDS011;7846;48.830;9.116;2022-07-15T13:32:09;3.53;;;1.67;;
15488;SDS011;7846;48.830;9.116;2022-07-15T13:34:53;3.33;;;1.73;;
15488;SDS011;7846;48.830;9.116;2022-07-15T13:37:37;2.17;;;1.60;;
15488;SDS011;7846;48.830;9.116;2022-07-15T13:40:21;5.38;;;1.80;;
15488;SDS011;7846;48.830;9.116;2022-07-15T13:43:05;2.83;;;1.80;;
15488;SDS011;7846;48.830;9.116;2022-07-15T13:45:49;5.53;;;1.80;;
15488;SDS011;7846;48.830;9.116;2022-07-15T13:48:33;3.20;;;1.63;;
15488;SDS011;7846;48.830;9.116;2022-07-15T13:51:17;4.00;;;1.70;;
15488;SDS011;7846;48.830;9.116;2022-07-15T13:54:08;4.10;;;1.70;;
15488;SDS011;7846;48.830;9.116;2022-07-15T13:56:53;1.90;;;1.60;;
15488;SDS011;7846;48.830;9.116;2022-07-15T13:59:37;6.10;;;1.80;;
15488;SDS011;7846;48.830;9.116;2022-07-15T14:02:21;3.53;;;1.80;;
15488;SDS011;7846;48.830;9.116;2022-07-15T14:05:05;6.00;;;1.90;;
15488;SDS011;7846;48.830;9.116;2022-07-15T14:07:50;2.80;;;1.80;;
15488;SDS011;7846;48.830;9.116;2022-07-15T14:10:34;2.80;;;1.80;;
15488;SDS011;7846;48.830;9.116;2022-07-15T14:13:18;1.50;;;1.40;;
15488;SDS011;7846;48.830;9.116;2022-07-15T14:16:02;4.13;;;2.00;;
15488;SDS011;7846;48.830;9.116;2022-07-15T14:18:47;5.07;;;1.70;;
15488;SDS011;7846;48.830;9.116;2022-07-15T14:21:31;2.87;;;1.50;;
15488;SDS011;7846;48.830;9.116;2022-07-15T14:24:15;6.67;;;1.60;;
15488;SDS011;7846;48.830;9.116;2022-07-15T14:26:58;1.77;;;1.50;;
15488;SDS011;7846;48.830;9.116;2022-07-15T14:29:42;1.87;;;1.53;;
15488;SDS011;7846;48.830;9.116;2022-07-15T14:32:26;4.77;;;1.63;;
15488;SDS011;7846;48.830;9.116;2022-07-15T14:35:11;5.43;;;1.63;;
15488;SDS011;7846;48.830;9.116;2022-07-15T14:37:56;1.97;;;1.80;;
15488;SDS011;7846;48.830;9.116;2022-07-15T14:40:40;1.70;;;1.60;;
15488;SDS011;7846;48.830;9.116;2022-07-15T14:43:24;2.53;;;1.77;;
15488;SDS011;7846;48.830;9.116;2022-07-15T14:46:07;2.23;;;1.63;;
15488;SDS011;7846;48.830;9.116;2022-07-15T14:48:52;2.63;;;1.50;;
15488;SDS011;7846;48.830;9.116;2022-07-15T14:51:36;2.85;;;1.63;;
15488;SDS011;7846;48.830;9.116;2022-07-15T14:54:20;2.60;;;1.63;;
15488;SDS011;7846;48.830;9.116;2022-07-15T14:57:05;3.65;;;1.70;;
15488;SDS011;7846;48.830;9.116;2022-07-15T14:59:49;2.85;;;1.80;;
15488;SDS011;7846;48.830;9.116;2022-07-15T15:02:34;2.80;;;1.70;;
15488;SDS011;7846;48.830;9.116;2022-07-15T15:05:19;4.90;;;1.70;;
15488;SDS011;7846;48.830;9.116;2022-07-15T15:08:04;3.00;;;1.80;;
15488;SDS011;7846;48.830;9.116;2022-07-15T15:10:48;5.70;;;1.80;;
15488;SDS011;7846;48.830;9.116;2022-07-15T15:13:32;2.93;;;1.67;;
15488;SDS011;7846;48.830;9.116;2022-07-15T15:16:16;3.80;;;1.50;;
15488;SDS011;7846;48.830;9.116;2022-07-15T15:19:01;3.37;;;1.80;;
15488;SDS011;7846;48.830;9.116;2022-07-15T15:21:45;3.85;;;1.70;;
15488;SDS011;7846;48.830;9.116;2022-07-15T15:24:32;2.38;;;1.83;;
15488;SDS011;7846;48.830;9.116;2022-07-15T15:27:17;2.70;;;1.60;;
15488;SDS011;7846;48.830;9.116;2022-07-15T15:30:03;2.57;;;1.50;;
15488;SDS011;7846;48.830;9.116;2022-07-15T15:32:48;3.33;;;1.60;;
15488;SDS011;7846;48.830;9.116;2022-07-15T15:35:36;3.00;;;1.70;;
15488;SDS011;7846;48.830;9.116;2022-07-15T15:38:19;3.35;;;1.73;;
15488;SDS011;7846;48.830;9.116;2022-07-15T15:41:04;3.13;;;1.57;;
15488;SDS011;7846;48.830;9.116;2022-07-15T15:43:48;1.77;;;1.67;;
15488;SDS011;7846;48.830;9.116;2022-07-15T15:46:32;1.80;;;1.63;;
15488;SDS011;7846;48.830;9.116;2022-07-15T15:49:17;2.60;;;1.83;;
15488;SDS011;7846;48.830;9.116;2022-07-15T15:52:01;2.78;;;2.05;;
15488;SDS011;7846;48.830;9.116;2022-07-15T15:54:48;3.13;;;1.60;;
15488;SDS011;7846;48.830;9.116;2022-07-15T15:57:33;4.75;;;1.73;;
15488;SDS011;7846;48.830;9.116;2022-07-15T16:00:18;3.70;;;1.60;;
15488;SDS011;7846;48.830;9.116;2022-07-15T16:03:02;3.57;;;1.60;;
15488;SDS011;7846;48.830;9.116;2022-07-15T16:05:47;2.40;;;1.53;;
15488;SDS011;7846;48.830;9.116;2022-07-15T16:08:31;3.33;;;1.80;;
15488;SDS011;7846;48.830;9.116;2022-07-15T16:11:15;3.03;;;1.70;;
15488;SDS011;7846;48.830;9.116;2022-07-15T16:13:59;4.50;;;1.77;;
15488;SDS011;7846;48.830;9.116;2022-07-15T16:16:43;3.60;;;1.50;;
15488;SDS011;7846;48.830;9.116;2022-07-15T16:19:27;3.40;;;1.60;;
15488;SDS011;7846;48.830;9.116;2022-07-15T16:22:11;3.43;;;1.80;;
15488;SDS011;7846;48.830;9.116;2022-07-15T16:25:13;2.07;;;1.83;;
15488;SDS011;7846;48.830;9.116;2022-07-15T16:27:58;3.03;;;1.90;;
15488;SDS011;7846;48.830;9.116;2022-07-15T16:30:44;4.50;;;2.10;;
15488;SDS011;7846;48.830;9.116;2022-07-15T16:33:29;3.47;;;2.20;;
15488;SDS011;7846;48.830;9.116;2022-07-15T16:36:13;3.57;;;1.80;;
15488;SDS011;7846;48.830;9.116;2022-07-15T16:38:57;2.73;;;1.90;;
15488;SDS011;7846;48.830;9.116;2022-07-15T16:41:41;4.17;;;1.70;;
15488;SDS011;7846;48.830;9.116;2022-07-15T16:44:25;3.27;;;1.77;;
15488;SDS011;7846;48.830;9.116;2022-07-15T16:47:09;4.43;;;2.00;;
15488;SDS011;7846;48.830;9.116;2022-07-15T16:49:54;2.63;;;1.87;;
15488;SDS011;7846;48.830;9.116;2022-07-15T16:52:38;4.53;;;1.83;;
15488;SDS011;7846;48.830;9.116;2022-07-15T16:55:23;2.20;;;1.80;;
15488;SDS011;7846;48.830;9.116;2022-07-15T16:58:07;3.00;;;1.57;;
15488;SDS011;7846;48.830;9.116;2022-07-15T17:00:51;2.33;;;1.70;;
15488;SDS011;7846;48.830;9.116;2022-07-15T17:03:35;2.30;;;1.80;;
15488;SDS011;7846;48.830;9.116;2022-07-15T17:06:19;2.90;;;1.67;;
15488;SDS011;7846;48.830;9.116;2022-07-15T17:09:03;3.80;;;1.70;;
15488;SDS011;7846;48.830;9.116;2022-07-15T17:11:47;4.40;;;1.63;;
15488;SDS011;7846;48.830;9.116;2022-07-15T17:14:31;2.80;;;1.47;;
15488;SDS011;7846;48.830;9.116;2022-07-15T17:17:18;7.20;;;2.07;;
15488;SDS011;7846;48.830;9.116;2022-07-15T17:20:02;3.47;;;1.73;;
15488;SDS011;7846;48.830;9.116;2022-07-15T17:22:48;3.30;;;1.70;;